Time;durP1;ratioP1;P1;durP2;ratioP2;P2;SDS_P1;SDS_P2;PMS_P1;PMS_P2;Temp;Humidity;BMP_temperature;BMP_pressure;BME280_temperature;BME280_humidity;BME280_pressure;Samples;Min_cycle;Max_cycle;Signal;HPM_P1;HPM_P2
2022/09/02 00:09:39;;;;;;;4.25;1.38;;;;;;;19.07;47.64;100374.38;31489481;28;20529;-80
2022/09/02 00:24:41;;;;;;;3.10;1.20;;;;;;;18.85;48.82;100406.91;31483199;28;20091;-80
2022/09/02 00:39:43;;;;;;;1.92;1.35;;;;;;;18.56;49.69;100411.00;31478049;28;20048;-79
2022/09/02 00:55:14;;;;;;;2.65;1.20;;;;;;;18.34;51.12;100419.50;31485667;28;20060;-80
2022/09/02 01:10:20;;;;;;;2.65;1.80;;;;;;;18.16;51.74;100429.78;31476001;28;20056;-79
2022/09/02 01:25:26;;;;;;;2.72;1.60;;;;;;;17.77;53.20;100448.75;31477808;28;20036;-79
2022/09/02 01:40:29;;;;;;;3.33;1.27;;;;;;;17.31;54.82;100462.47;31484664;28;20052;-79
2022/09/02 01:55:33;;;;;;;2.83;1.50;;;;;;;17.18;55.66;100481.03;31472541;28;20456;-81
2022/09/02 02:10:35;;;;;;;3.45;1.70;;;;;;;16.86;56.41;100487.81;31491569;28;20060;-81
2022/09/02 02:25:37;;;;;;;4.10;1.60;;;;;;;16.60;57.45;100506.41;31470708;28;20041;-80
2022/09/02 02:40:40;;;;;;;2.55;1.70;;;;;;;16.52;58.78;100524.34;31482647;28;20060;-80
2022/09/02 02:55:43;;;;;;;2.65;1.52;;;;;;;16.32;58.83;100527.41;31482424;28;20074;-80
2022/09/02 03:10:52;;;;;;;5.60;2.43;;;;;;;16.28;59.73;100545.19;31503910;28;20053;-81
2022/09/02 03:25:53;;;;;;;6.53;1.90;;;;;;;16.00;61.01;100553.19;31486329;28;20052;-80
2022/09/02 03:40:57;;;;;;;4.77;2.20;;;;;;;16.33;60.99;100566.50;31488767;28;20114;-80
2022/09/02 03:56:05;;;;;;;5.80;3.15;;;;;;;16.72;60.60;100570.59;31497586;28;20044;-81
2022/09/02 04:11:09;;;;;;;8.30;3.50;;;;;;;17.02;59.29;100593.75;31480224;28;20048;-82
2022/09/02 04:26:14;;;;;;;5.60;2.58;;;;;;;17.39;59.08;100605.63;31493541;28;20044;-81
2022/09/02 04:41:23;;;;;;;10.43;3.55;;;;;;;17.73;59.24;100615.63;31489371;28;20055;-81
2022/09/02 04:56:28;;;;;;;7.30;3.08;;;;;;;18.42;57.77;100617.84;31482060;28;20040;-81
2022/09/02 05:11:32;;;;;;;5.38;2.70;;;;;;;19.30;55.90;100628.78;31484276;28;20058;-80
2022/09/02 05:26:36;;;;;;;4.45;1.73;;;;;;;20.21;50.53;100644.03;31480930;28;20048;-81
2022/09/02 05:41:38;;;;;;;5.67;3.10;;;;;;;20.76;46.50;100658.88;31480331;28;20063;-80
2022/09/02 05:56:42;;;;;;;8.38;2.42;;;;;;;21.43;45.50;100679.31;31486999;28;20051;-83
2022/09/02 06:11:48;;;;;;;6.72;3.03;;;;;;;22.17;42.30;100687.38;31478224;28;20052;-82
2022/09/02 06:26:52;;;;;;;4.43;2.22;;;;;;;23.23;39.21;100682.94;31524916;28;20044;-82
2022/09/02 06:41:56;;;;;;;2.08;1.52;;;;;;;24.02;37.13;100676.63;31491998;28;20056;-86
2022/09/02 06:56:58;;;;;;;7.67;2.10;;;;;;;24.53;34.53;100683.16;31512627;28;20079;-78
2022/09/02 07:12:02;;;;;;;1.97;0.80;;;;;;;25.01;32.91;100693.34;31473181;28;20052;-77
2022/09/02 07:27:06;;;;;;;3.95;0.70;;;;;;;25.07;31.47;100694.09;31469369;28;20051;-78
2022/09/02 07:42:11;;;;;;;1.67;1.00;;;;;;;25.71;29.78;100687.50;31467985;28;20497;-78
2022/09/02 07:57:13;;;;;;;3.87;1.57;;;;;;;25.98;28.94;100677.56;31481750;28;20059;-76
2022/09/02 08:12:16;;;;;;;4.57;2.83;;;;;;;26.40;28.63;100686.75;31514375;28;20098;-83
2022/09/02 08:27:22;;;;;;;1.77;1.05;;;;;;;27.36;26.95;100688.34;31482598;28;20048;-78
2022/09/02 08:42:34;;;;;;;3.38;1.85;;;;;;;27.70;26.56;100694.34;31469467;28;20057;-78
2022/09/02 08:57:37;;;;;;;3.45;1.08;;;;;;;27.80;26.74;100686.41;31476403;28;20060;-77
2022/09/02 09:13:13;;;;;;;3.70;0.98;;;;;;;27.97;25.79;100684.16;31468349;28;20056;-78
2022/09/02 09:28:15;;;;;;;3.08;0.98;;;;;;;28.85;24.56;100684.25;31470696;28;20064;-78
2022/09/02 09:43:18;;;;;;;1.15;0.70;;;;;;;29.08;24.04;100675.50;31472165;28;20159;-79
2022/09/02 09:58:33;;;;;;;4.20;0.88;;;;;;;29.22;24.23;100688.25;31475745;28;20051;-77
2022/09/02 10:13:37;;;;;;;2.30;0.85;;;;;;;29.46;24.14;100682.50;31489780;28;20090;-77
2022/09/02 10:29:07;;;;;;;1.10;0.60;;;;;;;29.23;23.63;100686.94;31484608;28;20109;-79
2022/09/02 10:44:26;;;;;;;2.17;0.80;;;;;;;30.03;22.91;100679.38;31500640;28;20052;-81
2022/09/02 10:59:36;;;;;;;2.67;1.25;;;;;;;30.12;22.79;100679.69;31531352;28;20052;-78
2022/09/02 11:14:42;;;;;;;4.70;1.27;;;;;;;30.76;20.90;100656.88;31518934;28;20087;-79
2022/09/02 11:30:07;;;;;;;2.45;1.70;;;;;;;31.07;20.98;100651.53;31493976;28;20048;-81
2022/09/02 11:45:14;;;;;;;2.25;0.70;;;;;;;30.33;20.58;100648.19;31494240;28;20110;-78
2022/09/02 12:00:54;;;;;;;1.48;0.65;;;;;;;27.15;22.92;100623.19;31502400;28;20109;-78
2022/09/02 12:16:22;;;;;;;0.90;0.63;;;;;;;25.67;25.17;100608.38;31511581;28;20052;-78
2022/09/02 12:31:41;;;;;;;1.27;0.65;;;;;;;25.19;24.97;100615.06;31471500;28;20524;-79
2022/09/02 12:46:43;;;;;;;1.02;0.60;;;;;;;25.04;25.54;100597.88;31482487;28;20131;-78
2022/09/02 13:02:11;;;;;;;2.33;1.17;;;;;;;24.53;27.05;100599.91;31485934;28;20044;-80
2022/09/02 13:17:21;;;;;;;4.93;0.63;;;;;;;24.22;26.96;100588.97;31479465;28;20136;-76
2022/09/02 13:32:37;;;;;;;4.50;1.77;;;;;;;24.20;27.05;100586.69;31494839;28;20092;-77
2022/09/02 13:47:47;;;;;;;;;;;;;;;23.98;27.66;100592.94;31467226;28;20066;-77
2022/09/02 14:02:59;;;;;;;6.43;1.80;;;;;;;23.78;27.83;100593.88;31485381;28;19929;-77
2022/09/02 14:18:23;;;;;;;3.30;1.33;;;;;;;23.67;27.47;100587.50;31496348;28;20458;-80
2022/09/02 14:33:36;;;;;;;7.45;1.38;;;;;;;23.54;27.70;100578.91;31477891;28;20448;-79
2022/09/02 14:48:38;;;;;;;6.93;1.40;;;;;;;23.28;28.09;100596.34;31496868;28;20060;-79
2022/09/02 15:03:42;;;;;;;2.70;1.53;;;;;;;23.07;28.20;100592.19;31511799;28;20305;-78
2022/09/02 15:18:46;;;;;;;3.60;1.67;;;;;;;22.88;28.48;100591.03;31524442;28;20071;-80
2022/09/02 15:33:50;;;;;;;3.63;1.30;;;;;;;22.70;29.10;100592.88;31471858;28;20123;-81
2022/09/02 15:48:53;;;;;;;2.45;1.33;;;;;;;22.42;29.82;100589.88;31483260;28;20048;-81
2022/09/02 16:04:02;;;;;;;7.45;2.00;;;;;;;22.17;29.99;100604.44;31490167;28;20045;-79
2022/09/02 16:19:08;;;;;;;4.93;1.90;;;;;;;21.88;30.17;100619.16;31484036;28;20040;-80
2022/09/02 16:34:16;;;;;;;4.10;1.45;;;;;;;21.61;30.86;100630.59;31489814;28;20715;-80
2022/09/02 16:49:20;;;;;;;6.90;2.28;;;;;;;21.36;32.50;100638.28;31467023;28;20086;-80
2022/09/02 17:04:22;;;;;;;4.25;2.00;;;;;;;21.18;32.85;100657.81;31486213;28;20052;-80
2022/09/02 17:19:25;;;;;;;4.65;2.00;;;;;;;21.04;33.51;100669.59;31493012;28;20059;-84
2022/09/02 17:34:32;;;;;;;4.75;2.30;;;;;;;20.81;34.68;100681.50;31505615;28;20087;-85
2022/09/02 17:49:36;;;;;;;3.88;2.10;;;;;;;20.60;35.10;100697.94;31485445;28;20053;-82
2022/09/02 18:05:00;;;;;;;3.83;2.50;;;;;;;20.39;35.29;100674.97;31480550;28;20053;-82
2022/09/02 18:20:17;;;;;;;7.30;1.70;;;;;;;20.21;35.48;100672.34;31501051;28;20601;-81
2022/09/02 18:35:34;;;;;;;2.55;1.40;;;;;;;19.99;34.44;100678.16;31513304;28;20490;-81
2022/09/02 18:50:40;;;;;;;5.57;2.47;;;;;;;19.82;34.31;100673.53;31487193;28;20083;-83
2022/09/02 19:05:57;;;;;;;5.82;1.90;;;;;;;19.64;35.43;100677.13;31495811;28;20412;-83
2022/09/02 19:21:00;;;;;;;5.90;1.40;;;;;;;19.47;35.08;100681.47;31478522;28;20046;-83
2022/09/02 19:36:02;;;;;;;3.72;1.33;;;;;;;19.27;35.60;100691.03;31489904;28;20044;-83
2022/09/02 19:51:10;;;;;;;3.47;2.00;;;;;;;19.06;37.47;100686.50;31488063;28;20064;-81
2022/09/02 20:06:12;;;;;;;5.05;2.00;;;;;;;18.90;37.79;100695.06;31460754;28;20048;-84
2022/09/02 20:21:21;;;;;;;4.45;2.15;;;;;;;18.68;39.21;100690.53;31484532;28;20068;-82
2022/09/02 20:36:38;;;;;;;1.77;1.13;;;;;;;18.48;39.13;100686.69;31482954;28;20055;-82
2022/09/02 20:52:19;;;;;;;8.98;1.95;;;;;;;18.33;37.78;100697.53;31491011;28;20387;-84
2022/09/02 21:07:30;;;;;;;9.13;2.63;;;;;;;18.27;36.75;100699.34;31501572;28;20135;-85
2022/09/02 21:22:39;;;;;;;10.27;3.05;;;;;;;18.27;36.25;100702.09;31479545;28;20066;-81
2022/09/02 21:37:44;;;;;;;13.70;3.53;;;;;;;18.23;36.32;100693.25;31471317;28;20057;-82
2022/09/02 21:52:47;;;;;;;11.63;3.22;;;;;;;18.09;36.58;100685.59;31474715;28;20052;-82
2022/09/02 22:08:17;;;;;;;9.30;3.25;;;;;;;18.04;37.02;100676.75;31499720;28;20706;-82
2022/09/02 22:23:25;;;;;;;15.88;4.05;;;;;;;17.97;37.03;100677.03;31525598;28;20098;-81
2022/09/02 22:38:43;;;;;;;12.75;3.88;;;;;;;17.89;37.69;100675.81;31499656;28;20083;-81
2022/09/02 22:53:46;;;;;;;4.60;2.15;;;;;;;17.73;38.27;100656.81;31520913;28;20052;-81
2022/09/02 23:08:48;;;;;;;3.80;1.87;;;;;;;17.57;39.13;100643.34;31497769;28;20535;-81
2022/09/02 23:23:50;;;;;;;3.63;1.70;;;;;;;17.33;39.90;100663.06;31498167;28;20559;-81
2022/09/02 23:38:59;;;;;;;2.97;1.70;;;;;;;17.13;40.04;100659.94;31490962;28;20082;-81
2022/09/02 23:54:44;;;;;;;5.25;1.83;;;;;;;17.05;39.72;100653.19;31497008;28;20055;-81
